sensor_id;sensor_type;location;lat;lon;timestamp;pressure;altitude;pressure_sealevel;temperature;humidity
62152;BME280;48139;47.474;19.034;2023-07-31T03:46:01;100178.47;;;19.10;100.00
62152;BME280;48139;47.474;19.034;2023-07-31T03:49:06;100178.47;;;19.10;100.00
62152;BME280;48139;47.474;19.034;2023-07-31T03:52:09;100185.94;;;18.64;100.00
62152;BME280;48139;47.474;19.034;2023-07-31T03:55:12;100191.97;;;18.66;100.00
62152;BME280;48139;47.474;19.034;2023-07-31T03:58:15;100183.63;;;18.70;100.00
62152;BME280;48139;47.474;19.034;2023-07-31T04:01:19;100189.37;;;18.75;100.00
62152;BME280;48139;47.474;19.034;2023-07-31T04:04:22;100182.47;;;18.84;100.00
62152;BME280;48139;47.474;19.034;2023-07-31T04:07:24;100180.16;;;18.90;100.00
62152;BME280;48139;47.474;19.034;2023-07-31T04:10:27;100184.53;;;19.01;100.00
62152;BME280;48139;47.474;19.034;2023-07-31T04:13:30;100177.03;;;19.06;100.00
62152;BME280;48139;47.474;19.034;2023-07-31T04:16:37;100183.25;;;19.16;100.00
62152;BME280;48139;47.474;19.034;2023-07-31T04:19:40;100179.78;;;19.25;100.00
62152;BME280;48139;47.474;19.034;2023-07-31T04:22:43;100176.81;;;19.40;100.00
62152;BME280;48139;47.474;19.034;2023-07-31T04:25:45;100177.22;;;19.45;100.00
62152;BME280;48139;47.474;19.034;2023-07-31T04:28:48;100180.50;;;19.48;100.00
62152;BME280;48139;47.474;19.034;2023-07-31T04:31:51;100177.50;;;19.42;100.00
62152;BME280;48139;47.474;19.034;2023-07-31T04:34:54;100181.66;;;19.34;100.00
62152;BME280;48139;47.474;19.034;2023-07-31T04:37:57;100182.34;;;19.37;100.00
62152;BME280;48139;47.474;19.034;2023-07-31T04:41:01;100172.56;;;19.37;100.00
62152;BME280;48139;47.474;19.034;2023-07-31T04:44:03;100175.41;;;19.45;100.00
62152;BME280;48139;47.474;19.034;2023-07-31T04:47:06;100182.75;;;19.53;100.00
62152;BME280;48139;47.474;19.034;2023-07-31T04:50:09;100181.91;;;19.52;100.00
62152;BME280;48139;47.474;19.034;2023-07-31T04:53:12;100190.31;;;19.57;100.00
62152;BME280;48139;47.474;19.034;2023-07-31T04:56:15;100188.19;;;19.51;100.00
62152;BME280;48139;47.474;19.034;2023-07-31T04:59:19;100189.06;;;19.52;100.00
62152;BME280;48139;47.474;19.034;2023-07-31T05:02:22;100187.13;;;19.63;100.00
62152;BME280;48139;47.474;19.034;2023-07-31T05:05:24;100184.34;;;19.65;100.00
62152;BME280;48139;47.474;19.034;2023-07-31T05:08:27;100190.06;;;19.60;100.00
62152;BME280;48139;47.474;19.034;2023-07-31T05:11:32;100195.22;;;19.62;100.00
62152;BME280;48139;47.474;19.034;2023-07-31T05:14:35;100196.97;;;19.72;98.74
62152;BME280;48139;47.474;19.034;2023-07-31T05:17:38;100194.50;;;19.90;99.48
62152;BME280;48139;47.474;19.034;2023-07-31T05:20:41;100185.38;;;19.83;89.59
62152;BME280;48139;47.474;19.034;2023-07-31T05:23:44;100187.50;;;19.89;87.91
62152;BME280;48139;47.474;19.034;2023-07-31T05:26:46;100191.59;;;20.03;90.56
62152;BME280;48139;47.474;19.034;2023-07-31T05:29:49;100193.69;;;19.99;91.20
62152;BME280;48139;47.474;19.034;2023-07-31T05:32:52;100197.22;;;20.09;86.87
62152;BME280;48139;47.474;19.034;2023-07-31T05:35:55;100206.19;;;20.18;76.60
62152;BME280;48139;47.474;19.034;2023-07-31T05:38:58;100187.00;;;20.24;78.81
62152;BME280;48139;47.474;19.034;2023-07-31T05:42:01;100196.09;;;20.12;79.36
62152;BME280;48139;47.474;19.034;2023-07-31T05:45:05;100192.19;;;20.16;80.17
62152;BME280;48139;47.474;19.034;2023-07-31T05:48:08;100200.72;;;20.10;79.58
62152;BME280;48139;47.474;19.034;2023-07-31T05:51:11;100207.44;;;20.14;80.81
62152;BME280;48139;47.474;19.034;2023-07-31T05:54:14;100203.41;;;20.29;76.67
62152;BME280;48139;47.474;19.034;2023-07-31T05:57:17;100214.09;;;20.39;77.17
62152;BME280;48139;47.474;19.034;2023-07-31T06:00:20;100214.38;;;20.55;76.28
62152;BME280;48139;47.474;19.034;2023-07-31T06:03:25;100214.25;;;20.66;72.23
62152;BME280;48139;47.474;19.034;2023-07-31T06:06:28;100214.25;;;20.66;72.62
62152;BME280;48139;47.474;19.034;2023-07-31T06:09:31;100218.59;;;20.96;75.46
62152;BME280;48139;47.474;19.034;2023-07-31T06:12:34;100214.53;;;21.11;73.14
62152;BME280;48139;47.474;19.034;2023-07-31T06:15:37;100210.00;;;21.12;74.96
62152;BME280;48139;47.474;19.034;2023-07-31T06:18:40;100219.00;;;21.01;75.74
62152;BME280;48139;47.474;19.034;2023-07-31T06:21:43;100218.03;;;20.92;73.54
62152;BME280;48139;47.474;19.034;2023-07-31T06:24:46;100223.34;;;21.02;73.32
62152;BME280;48139;47.474;19.034;2023-07-31T06:27:49;100220.78;;;21.39;75.30
62152;BME280;48139;47.474;19.034;2023-07-31T06:30:52;100216.19;;;21.68;70.02
62152;BME280;48139;47.474;19.034;2023-07-31T06:33:55;100218.09;;;21.86;70.66
62152;BME280;48139;47.474;19.034;2023-07-31T06:36:58;100212.69;;;22.05;67.99
62152;BME280;48139;47.474;19.034;2023-07-31T06:40:03;100215.81;;;21.91;67.40
62152;BME280;48139;47.474;19.034;2023-07-31T06:43:07;100220.41;;;21.61;70.06
62152;BME280;48139;47.474;19.034;2023-07-31T06:46:10;100227.22;;;21.46;70.48
62152;BME280;48139;47.474;19.034;2023-07-31T06:49:14;100233.25;;;21.39;67.36
62152;BME280;48139;47.474;19.034;2023-07-31T06:52:21;100230.34;;;21.03;69.35
62152;BME280;48139;47.474;19.034;2023-07-31T06:55:27;100238.06;;;21.06;72.22
62152;BME280;48139;47.474;19.034;2023-07-31T06:58:30;100237.34;;;21.14;74.57
62152;BME280;48139;47.474;19.034;2023-07-31T07:01:33;100228.81;;;21.01;74.52
62152;BME280;48139;47.474;19.034;2023-07-31T07:04:36;100234.28;;;20.99;74.45
62152;BME280;48139;47.474;19.034;2023-07-31T07:07:40;100238.47;;;21.02;76.24
62152;BME280;48139;47.474;19.034;2023-07-31T07:10:42;100241.16;;;21.11;77.67
62152;BME280;48139;47.474;19.034;2023-07-31T07:13:45;100253.06;;;21.36;78.10
62152;BME280;48139;47.474;19.034;2023-07-31T07:16:51;100252.50;;;21.42;78.30
62152;BME280;48139;47.474;19.034;2023-07-31T07:19:53;100251.66;;;21.13;80.73
62152;BME280;48139;47.474;19.034;2023-07-31T07:22:56;100251.94;;;21.00;82.62
62152;BME280;48139;47.474;19.034;2023-07-31T07:25:59;100248.59;;;20.88;81.98
62152;BME280;48139;47.474;19.034;2023-07-31T07:29:02;100242.41;;;21.07;82.28
62152;BME280;48139;47.474;19.034;2023-07-31T07:32:05;100256.12;;;21.31;77.62
62152;BME280;48139;47.474;19.034;2023-07-31T07:35:08;100254.84;;;21.45;77.74
62152;BME280;48139;47.474;19.034;2023-07-31T07:38:10;100249.00;;;21.69;75.88
62152;BME280;48139;47.474;19.034;2023-07-31T07:41:13;100250.59;;;21.99;68.64
62152;BME280;48139;47.474;19.034;2023-07-31T07:44:15;100243.56;;;22.07;69.12
62152;BME280;48139;47.474;19.034;2023-07-31T07:47:18;100243.09;;;22.39;68.05
62152;BME280;48139;47.474;19.034;2023-07-31T07:50:20;100240.06;;;22.87;63.52
62152;BME280;48139;47.474;19.034;2023-07-31T07:53:23;100240.47;;;22.75;60.90
62152;BME280;48139;47.474;19.034;2023-07-31T07:56:26;100247.06;;;22.08;59.72
62152;BME280;48139;47.474;19.034;2023-07-31T07:59:29;100252.12;;;21.64;61.10
62152;BME280;48139;47.474;19.034;2023-07-31T08:02:32;100242.94;;;21.40;62.01
62152;BME280;48139;47.474;19.034;2023-07-31T08:05:34;100244.06;;;21.47;62.36
62152;BME280;48139;47.474;19.034;2023-07-31T08:08:37;100243.84;;;21.67;61.82
62152;BME280;48139;47.474;19.034;2023-07-31T08:11:40;100249.19;;;21.95;61.27
62152;BME280;48139;47.474;19.034;2023-07-31T08:14:43;100243.59;;;22.25;57.00
62152;BME280;48139;47.474;19.034;2023-07-31T08:17:45;100235.91;;;22.40;56.59
62152;BME280;48139;47.474;19.034;2023-07-31T08:20:48;100243.78;;;22.59;55.50
62152;BME280;48139;47.474;19.034;2023-07-31T08:23:50;100241.63;;;22.72;55.07
62152;BME280;48139;47.474;19.034;2023-07-31T08:26:53;100233.28;;;22.93;54.40
62152;BME280;48139;47.474;19.034;2023-07-31T08:29:55;100240.87;;;23.06;53.61
62152;BME280;48139;47.474;19.034;2023-07-31T08:32:58;100248.06;;;23.05;53.33
62152;BME280;48139;47.474;19.034;2023-07-31T08:36:01;100255.91;;;23.24;53.13
62152;BME280;48139;47.474;19.034;2023-07-31T08:39:03;100250.50;;;23.16;51.62
62152;BME280;48139;47.474;19.034;2023-07-31T08:42:09;100249.47;;;23.35;52.51
62152;BME280;48139;47.474;19.034;2023-07-31T08:45:17;100243.66;;;23.40;53.22
62152;BME280;48139;47.474;19.034;2023-07-31T08:48:23;100237.41;;;23.31;51.62
62152;BME280;48139;47.474;19.034;2023-07-31T08:51:26;100224.78;;;23.15;49.59
62152;BME280;48139;47.474;19.034;2023-07-31T08:54:29;100242.09;;;23.11;51.23
62152;BME280;48139;47.474;19.034;2023-07-31T08:57:37;100245.84;;;23.18;50.21
62152;BME280;48139;47.474;19.034;2023-07-31T09:00:42;100237.47;;;23.39;50.86
62152;BME280;48139;47.474;19.034;2023-07-31T09:03:46;100237.81;;;23.44;48.89
62152;BME280;48139;47.474;19.034;2023-07-31T09:06:54;100234.16;;;23.45;50.16
62152;BME280;48139;47.474;19.034;2023-07-31T09:09:59;100229.38;;;23.83;48.96
62152;BME280;48139;47.474;19.034;2023-07-31T09:13:02;100232.12;;;23.65;48.89
62152;BME280;48139;47.474;19.034;2023-07-31T09:16:05;100217.28;;;23.70;47.37
62152;BME280;48139;47.474;19.034;2023-07-31T09:19:08;100222.00;;;23.77;46.13
62152;BME280;48139;47.474;19.034;2023-07-31T09:22:10;100222.63;;;24.12;46.24
62152;BME280;48139;47.474;19.034;2023-07-31T09:25:40;100226.31;;;24.54;46.77
62152;BME280;48139;47.474;19.034;2023-07-31T09:28:45;100219.44;;;24.75;45.45
62152;BME280;48139;47.474;19.034;2023-07-31T09:31:48;100216.28;;;24.13;47.16
62152;BME280;48139;47.474;19.034;2023-07-31T09:34:51;100222.56;;;24.30;46.53
62152;BME280;48139;47.474;19.034;2023-07-31T09:37:56;100215.75;;;23.60;47.82
62152;BME280;48139;47.474;19.034;2023-07-31T09:40:59;100210.63;;;23.75;49.96
62152;BME280;48139;47.474;19.034;2023-07-31T09:44:02;100213.84;;;23.86;49.80
62152;BME280;48139;47.474;19.034;2023-07-31T09:47:05;100209.16;;;24.30;48.37
62152;BME280;48139;47.474;19.034;2023-07-31T09:50:08;100204.25;;;24.18;47.60
62152;BME280;48139;47.474;19.034;2023-07-31T09:53:11;100197.97;;;24.35;49.48
62152;BME280;48139;47.474;19.034;2023-07-31T09:56:14;100202.38;;;24.76;46.09
62152;BME280;48139;47.474;19.034;2023-07-31T09:59:19;100200.69;;;24.51;45.47
62152;BME280;48139;47.474;19.034;2023-07-31T10:02:26;100217.28;;;24.55;46.22
62152;BME280;48139;47.474;19.034;2023-07-31T10:05:42;100218.06;;;24.39;45.78
62152;BME280;48139;47.474;19.034;2023-07-31T10:08:47;100211.38;;;24.51;45.60
62152;BME280;48139;47.474;19.034;2023-07-31T10:11:59;100208.88;;;24.49;46.04
62152;BME280;48139;47.474;19.034;2023-07-31T10:15:03;100209.59;;;25.00;46.14
62152;BME280;48139;47.474;19.034;2023-07-31T10:18:06;100213.22;;;25.48;44.02
62152;BME280;48139;47.474;19.034;2023-07-31T10:21:09;100213.94;;;25.34;43.20
62152;BME280;48139;47.474;19.034;2023-07-31T10:24:12;100203.34;;;25.32;44.12
62152;BME280;48139;47.474;19.034;2023-07-31T10:27:15;100210.41;;;25.25;44.22
62152;BME280;48139;47.474;19.034;2023-07-31T10:30:26;100204.50;;;25.46;43.71
62152;BME280;48139;47.474;19.034;2023-07-31T10:33:32;100201.12;;;25.52;44.85
62152;BME280;48139;47.474;19.034;2023-07-31T10:36:36;100206.56;;;25.36;44.83
62152;BME280;48139;47.474;19.034;2023-07-31T10:39:39;100199.38;;;25.12;44.95
62152;BME280;48139;47.474;19.034;2023-07-31T10:45:44;100182.84;;;25.63;45.55
62152;BME280;48139;47.474;19.034;2023-07-31T10:48:57;100176.37;;;25.89;44.95
62152;BME280;48139;47.474;19.034;2023-07-31T10:52:03;100177.22;;;26.20;44.23
62152;BME280;48139;47.474;19.034;2023-07-31T10:58:20;100184.53;;;26.57;42.54
62152;BME280;48139;47.474;19.034;2023-07-31T11:01:55;100178.88;;;25.90;43.50
62152;BME280;48139;47.474;19.034;2023-07-31T11:05:09;100171.44;;;26.00;43.00
62152;BME280;48139;47.474;19.034;2023-07-31T11:11:23;100178.69;;;26.31;41.44
62152;BME280;48139;47.474;19.034;2023-07-31T11:14:26;100165.50;;;26.13;41.14
62152;BME280;48139;47.474;19.034;2023-07-31T11:17:29;100164.12;;;26.25;41.22
62152;BME280;48139;47.474;19.034;2023-07-31T11:20:33;100167.59;;;26.03;41.05
62152;BME280;48139;47.474;19.034;2023-07-31T11:23:36;100157.84;;;26.02;40.91
62152;BME280;48139;47.474;19.034;2023-07-31T11:26:49;100156.22;;;25.93;41.50
62152;BME280;48139;47.474;19.034;2023-07-31T11:30:00;100163.63;;;25.91;41.73
